Forside
METAR-TAF:

METAR-TAF

Lufthavne :

Chongqing Jiangbei International Airport

Chongqing, Kina

Breddekreds: 29-31N, længdekreds: 106-29E, højde: 351 m

Aktuelle vejr

Denne rapport blev lavet for 17 minutter siden, kl. 01:00 UTC
Vind 4 kt fra sydøst, varierende mellem øst og syd
Temperatur 10°C
Fugtighed 82%
Tryk 1025 hPa
Sigt: 3500 m
dis

METAR: ZUCK 210100Z 14002MPS 100V170 3500 BR NSC 10/07 Q1025 NOSIG

Tid: 09:17 (01:17 UTC)

Vejrudsigter

Denne rapport blev lavet for 6 timer og 11 minutter siden, kl. 19:06 UTC
Foreløbig gælder fra 21 på 00 UTC til 21 på 24 UTC
Vind 6 kt fra nord
Sigt: 5000 m
Spredte skyer i en højde af 5000 ft
dis

TAF: ZUCK 201906Z 2100/2124 01003MPS 5000 BR SCT050 TX14/2108Z TN08/2122Z

Vejrobservationer og prognoser fra mere end 4000 lufthavne (METAR og TAF).

De gule og røde prikker repræsenterer de meteorologiske stationer.

Flyt musen over at se navnet på stationen.

Så klik over at se vejr observationer og prognoser.

At skifte det kort: Klik på de grønne knapper med et sort kors for at zoome ind; på den grønne knap med en bindestreg for at zoome ud; eller på de grønne pile for tilstødende kort.


METAR-TAF: